Data for 03/21/2013

Time Sea-Level Adjusted Pressure Absolute Pressure Temperature Relative Humidity Dew Point   
(mb) (inHg) (mb) (inHg) (C) (F) (%) (C) (F)
00:05 1007 29.74 836 24.69 0 32 96 -0.5 31.1
00:10 1007 29.74 836 24.69 0 32 96 -0.5 31.1
00:15 1007 29.74 836 24.69 0 32 96 -0.5 31.1
00:20 1007 29.74 836 24.69 -0.1 31.8 96 -0.6 30.9
00:25 1007 29.74 836 24.69 -0.2 31.6 97 -0.7 30.7
00:30 1007 29.74 836 24.69 -0.3 31.5 97 -0.7 30.7
00:35 1007 29.74 836 24.69 -0.2 31.6 97 -0.7 30.8
00:40 1007 29.74 836 24.69 -0.2 31.6 97 -0.7 30.8
00:45 1007 29.74 836 24.69 -0.2 31.6 97 -0.6 30.9
00:50 1007 29.74 836 24.69 -0.2 31.6 97 -0.6 30.9
00:55 1007 29.74 836 24.69 -0.2 31.6 97 -0.6 30.8
01:00 1007 29.74 836 24.69 -0.2 31.7 97 -0.6 30.9
01:05 1007 29.74 836 24.69 -0.2 31.7 97 -0.6 30.9
01:10 1007 29.74 836 24.69 -0.2 31.6 97 -0.6 30.9
01:15 1007 29.74 836 24.69 -0.2 31.6 97 -0.6 30.9
01:20 1007 29.74 837 24.72 -0.1 31.7 97 -0.5 31
01:25 1007 29.74 836 24.69 -0.2 31.7 97 -0.6 31
01:30 1007 29.74 837 24.72 -0.2 31.6 97 -0.6 30.9
01:35 1007 29.74 837 24.72 -0.2 31.6 97 -0.6 30.9
01:40 1008 29.77 837 24.72 -0.2 31.6 97 -0.6 30.9
01:45 1008 29.77 837 24.72 -0.2 31.6 97 -0.6 30.9
01:50 1008 29.77 837 24.72 -0.2 31.7 97 -0.6 31
01:55 1008 29.77 837 24.72 -0.2 31.6 97 -0.6 30.9
02:00 1008 29.77 837 24.72 -0.2 31.7 97 -0.6 30.9
02:05 1008 29.77 837 24.72 -0.2 31.7 97 -0.6 31
02:10 1008 29.77 837 24.72 -0.2 31.7 97 -0.6 31
02:15 1008 29.77 837 24.72 -0.2 31.7 97 -0.5 31
02:20 1008 29.77 837 24.72 -0.2 31.6 97 -0.6 30.9
02:25 1008 29.77 837 24.72 -0.3 31.5 97 -0.6 30.8
02:30 1008 29.77 837 24.72 -0.3 31.4 97 -0.7 30.7
02:35 1008 29.77 837 24.72 -0.4 31.2 97 -0.8 30.5
02:40 1008 29.77 837 24.72 -0.5 31 97 -0.9 30.3
02:45 1008 29.77 837 24.72 -0.6 30.9 97 -1 30.2
02:50 1008 29.77 837 24.72 -0.9 30.5 97 -1.3 29.7
02:55 1007 29.74 837 24.72 -1 30.2 97 -1.4 29.5
03:00 1007 29.74 837 24.72 -1.1 30 97 -1.5 29.3
03:05 1008 29.77 837 24.72 -1.2 29.8 97 -1.6 29.1
03:10 1007 29.74 837 24.72 -1.3 29.6 97 -1.7 28.9
03:15 1007 29.74 837 24.72 -1.4 29.5 97 -1.8 28.8
03:20 1007 29.74 837 24.72 -1.4 29.4 97 -1.8 28.7
03:25 1007 29.74 837 24.72 -1.5 29.4 97 -1.9 28.6
03:30 1007 29.74 837 24.72 -1.5 29.3 97 -1.9 28.5
03:35 1007 29.74 837 24.72 -1.6 29.2 97 -2 28.4
03:40 1007 29.74 836 24.69 -1.7 29 97 -2.1 28.2
03:45 1007 29.74 836 24.69 -1.8 28.8 97 -2.2 28
03:50 1007 29.74 836 24.69 -1.9 28.7 97 -2.3 27.8
03:55 1007 29.74 836 24.69 -1.9 28.6 96 -2.4 27.6
04:00 1007 29.74 836 24.69 -2 28.5 96 -2.5 27.5
04:05 1007 29.74 836 24.69 -1.9 28.5 96 -2.5 27.4
04:10 1007 29.74 836 24.69 -2 28.5 95 -2.6 27.3
04:15 1007 29.74 836 24.69 -1.9 28.5 95 -2.7 27.2
04:20 1007 29.74 836 24.69 -1.9 28.6 94 -2.7 27.2
04:25 1007 29.74 836 24.69 -1.9 28.6 94 -2.7 27.1
04:30 1007 29.74 836 24.69 -2 28.5 94 -2.7 27.1
04:35 1007 29.74 836 24.69 -2 28.5 95 -2.7 27.1
04:40 1007 29.74 836 24.69 -1.9 28.5 94 -2.7 27.1
04:45 1007 29.74 836 24.69 -1.9 28.5 93 -2.9 26.9
04:50 1007 29.74 837 24.72 -1.9 28.6 92 -3 26.7
04:55 1008 29.77 837 24.72 -2 28.4 92 -3.1 26.5
05:00 1008 29.77 837 24.72 -2 28.4 91 -3.3 26.1
05:05 1008 29.77 837 24.72 -2 28.5 90 -3.3 26
05:10 1008 29.77 837 24.72 -2 28.4 91 -3.2 26.2
05:15 1008 29.77 838 24.75 -2.1 28.2 92 -3.2 26.2
05:20 1008 29.77 838 24.75 -2.2 28.1 93 -3.2 26.2
05:25 1008 29.77 838 24.75 -2.2 28 92 -3.4 25.8
05:30 1008 29.77 838 24.75 -2.2 28 91 -3.5 25.7
05:35 1009 29.8 838 24.75 -2.3 27.9 92 -3.3 26
05:40 1009 29.8 838 24.75 -2.3 27.9 93 -3.3 26.1
05:45 1009 29.8 838 24.75 -2.3 27.9 93 -3.3 26
05:50 1009 29.8 838 24.75 -2.3 27.9 92 -3.5 25.8
05:55 1009 29.8 838 24.75 -2.3 27.9 91 -3.5 25.7
06:00 1009 29.8 838 24.75 -2.3 27.9 91 -3.6 25.6
06:05 1009 29.8 838 24.75 -2.3 27.9 91 -3.6 25.6
06:10 1009 29.8 838 24.75 -2.3 27.9 91 -3.6 25.6
06:15 1009 29.8 838 24.75 -2.3 27.8 91 -3.6 25.4
06:20 1009 29.8 838 24.75 -2.3 27.9 91 -3.5 25.6
06:25 1009 29.8 838 24.75 -2.3 27.9 92 -3.5 25.7
06:30 1009 29.8 838 24.75 -2.3 27.9 92 -3.5 25.7
06:35 1009 29.8 838 24.75 -2.3 27.9 91 -3.6 25.6
06:40 1009 29.8 838 24.75 -2.2 28 91 -3.5 25.7
06:45 1009 29.8 839 24.78 -2.2 28 91 -3.5 25.6
06:50 1009 29.8 839 24.78 -2.2 28 90 -3.6 25.5
06:55 1009 29.8 839 24.78 -2.2 28 90 -3.6 25.4
07:00 1009 29.8 839 24.78 -2.2 28.1 90 -3.7 25.4
07:05 1009 29.8 839 24.78 -2.2 28 89 -3.8 25.2
07:10 1010 29.83 839 24.78 -2.2 28 86 -4.3 24.2
07:15 1010 29.83 839 24.78 -2.2 28 82 -4.8 23.4
07:20 1010 29.83 839 24.78 -2.2 28 80 -5.2 22.7
07:25 1010 29.83 839 24.78 -2.1 28.2 83 -4.5 23.8
07:30 1010 29.83 839 24.78 -2.1 28.2 86 -4.1 24.7
07:35 1010 29.83 839 24.78 -1.9 28.6 85 -4.1 24.7
07:40 1010 29.83 839 24.78 -1.6 29.1 84 -4 24.9
07:45 1010 29.83 839 24.78 -1.4 29.5 79 -4.6 23.7
07:50 1010 29.83 839 24.78 -1.2 29.8 73 -5.5 22.1
07:55 1010 29.83 839 24.78 -1.1 30 74 -5.2 22.7
08:00 1010 29.83 839 24.78 -1 30.1 76 -4.7 23.5
08:05 1010 29.83 839 24.78 -1.3 29.7 78 -4.6 23.7
08:10 1010 29.83 839 24.78 -1.4 29.5 80 -4.5 23.9
08:15 1010 29.83 839 24.78 -1.6 29.1 82 -4.3 24.2
08:20 1010 29.83 839 24.78 -1.6 29.1 79 -4.7 23.5
08:25 1010 29.83 839 24.78 -0.9 30.4 75 -4.8 23.4
08:30 1010 29.83 839 24.78 -0 32 72 -4.5 23.9
08:35 1010 29.83 839 24.78 0.4 32.8 68 -4.8 23.3
08:40 1010 29.83 839 24.78 0.1 32.3 70 -4.8 23.4
08:45 1010 29.83 839 24.78 0.2 32.3 71 -4.4 24
08:50 1010 29.83 839 24.78 -0.5 31.1 73 -4.8 23.4
08:55 1010 29.83 839 24.78 -0.3 31.5 67 -5.8 21.6
09:00 1010 29.83 839 24.78 0.2 32.3 67 -5.3 22.4
09:05 1010 29.83 839 24.78 0.3 32.5 65 -5.6 21.9
09:10 1010 29.83 839 24.78 0.4 32.7 62 -6.1 21.1
09:15 1010 29.83 839 24.78 0.1 32.1 64 -5.9 21.4
09:20 1010 29.83 839 24.78 -0.2 31.6 65 -6 21.2
09:25 1010 29.83 839 24.78 -0.3 31.5 63 -6.5 20.2
09:30 1010 29.83 839 24.78 0.3 32.5 60 -6.5 20.2
09:35 1010 29.83 839 24.78 0.1 32.2 60 -6.8 19.8
09:40 1010 29.83 839 24.78 0.6 33.1 59 -6.4 20.4
09:45 1010 29.83 839 24.78 0.9 33.7 57 -6.5 20.2
09:50 1010 29.83 840 24.81 0.3 32.5 58 -7.1 19.3
09:55 1010 29.83 840 24.81 0.2 32.3 56 -7.5 18.5
10:00 1010 29.83 840 24.81 0.3 32.5 54 -8 17.7
10:05 1010 29.83 839 24.78 -0 31.9 51 -9.1 15.7
10:10 1010 29.83 839 24.78 -0.4 31.2 48 -10.1 13.9
10:15 1010 29.83 840 24.81 0.2 32.4 48 -9.4 15
10:20 1010 29.83 840 24.81 0.4 32.7 46 -9.8 14.3
10:25 1010 29.83 840 24.81 -0 31.9 45 -10.7 12.7
10:30 1010 29.83 840 24.81 0.3 32.6 44 -10.5 13.1
10:35 1011 29.85 840 24.81 1 33.9 44 -10 14
10:40 1011 29.85 840 24.81 1.1 34 43 -10.2 13.6
10:45 1010 29.83 840 24.81 1 33.9 43 -10.3 13.5
10:50 1010 29.83 840 24.81 1.2 34.2 40 -10.9 12.3
10:55 1010 29.83 840 24.81 1.4 34.4 37 -11.7 10.9
11:00 1010 29.83 840 24.81 1.3 34.4 38 -11.4 11.4
11:05 1010 29.83 840 24.81 1.5 34.8 37 -11.5 11.3
11:10 1010 29.83 840 24.81 1.2 34.2 39 -11.3 11.7
11:15 1010 29.83 840 24.81 1.5 34.8 37 -11.7 10.9
11:20 1010 29.83 840 24.81 1.3 34.4 37 -11.7 10.9
11:25 1010 29.83 840 24.81 1.3 34.3 40 -11 12.2
11:30 1010 29.83 840 24.81 1.5 34.8 35 -12.4 9.7
11:35 1010 29.83 840 24.81 1.8 35.2 35 -12.2 10
11:40 1010 29.83 840 24.81 2.1 35.8 36 -11.4 11.5
11:45 1010 29.83 840 24.81 1.6 34.9 38 -11.2 11.9
11:50 1010 29.83 840 24.81 2.1 35.7 38 -11 12.3
11:55 1010 29.83 840 24.81 2.1 35.8 36 -11.4 11.4
12:00 1010 29.83 839 24.78 1.8 35.3 38 -11 12.1
12:05 1010 29.83 840 24.81 2.2 35.9 37 -11.1 12
12:10 1010 29.83 840 24.81 1.8 35.2 37 -11.6 11.2
12:15 1010 29.83 840 24.81 1.4 34.5 38 -11.4 11.5
12:20 1011 29.85 840 24.81 1.6 34.8 38 -11.2 11.8
12:25 1011 29.85 840 24.81 0.7 33.3 44 -10.2 13.6
12:30 1011 29.85 840 24.81 0.1 32.1 49 -9.3 15.2
12:35 1011 29.85 840 24.81 0 32.1 46 -10.2 13.6
12:40 1011 29.85 840 24.81 0.2 32.3 46 -10.2 13.6
12:45 1011 29.85 840 24.81 0.4 32.8 45 -10.3 13.5
12:50 1011 29.85 840 24.81 -0 32 46 -10.2 13.6
12:55 1011 29.85 840 24.81 0.6 33.1 41 -11.1 12.1
13:00 1011 29.85 840 24.81 1.1 33.9 43 -10.2 13.6
13:05 1011 29.85 840 24.81 1.7 35 39 -10.9 12.4
13:10 1011 29.85 840 24.81 1.9 35.4 39 -10.6 13
13:15 1011 29.85 840 24.81 1.5 34.7 42 -10 14
13:20 1011 29.85 840 24.81 1.1 34 39 -11.5 11.3
13:25 1011 29.85 840 24.81 1.1 34 37 -12.2 10
13:30 1011 29.85 840 24.81 1.5 34.7 38 -11.5 11.3
13:35 1011 29.85 840 24.81 1.1 34 43 -10.1 13.8
13:40 1011 29.85 840 24.81 0.9 33.6 43 -10.3 13.5
13:45 1011 29.85 840 24.81 1 33.8 42 -10.7 12.8
13:50 1011 29.85 840 24.81 1 33.7 43 -10.4 13.3
13:55 1011 29.85 840 24.81 0.9 33.6 44 -9.9 14.1
14:00 1011 29.85 840 24.81 0.6 33.1 46 -9.7 14.5
14:05 1011 29.85 840 24.81 0.7 33.2 44 -10.3 13.5
14:10 1011 29.85 840 24.81 0.3 32.5 48 -9.6 14.7
14:15 1011 29.85 840 24.81 -0 31.9 47 -10.1 13.8
14:20 1011 29.85 840 24.81 0.4 32.7 44 -10.4 13.3
14:25 1011 29.85 840 24.81 0.2 32.4 46 -10.1 13.8
14:30 1011 29.85 840 24.81 -0 32 52 -8.7 16.4
14:35 1011 29.85 840 24.81 -0.1 31.8 55 -8 17.6
14:40 1011 29.85 841 24.83 -0 31.9 56 -7.9 17.8
14:45 1011 29.85 841 24.83 -0.1 31.8 61 -6.8 19.8
14:50 1012 29.88 841 24.83 -0.5 31.2 63 -6.6 20.1
14:55 1012 29.88 841 24.83 -0.4 31.4 64 -6.4 20.5
15:00 1012 29.88 841 24.83 -0.9 30.4 65 -6.7 20
15:05 1012 29.88 841 24.83 -0.6 30.8 60 -7.4 18.6
15:10 1012 29.88 841 24.83 -0.4 31.2 59 -7.4 18.6
15:15 1012 29.88 841 24.83 -0.6 30.9 54 -8.8 16.2
15:20 1012 29.88 841 24.83 -0.2 31.6 51 -9.3 15.3
15:25 1012 29.88 841 24.83 0.3 32.6 47 -9.6 14.7
15:30 1012 29.88 841 24.83 0.3 32.6 45 -10.3 13.4
15:35 1012 29.88 841 24.83 0.3 32.6 43 -11 12.2
15:40 1012 29.88 841 24.83 0.4 32.7 36 -12.9 8.8
15:45 1012 29.88 841 24.83 0.6 33 42 -10.9 12.3
15:50 1012 29.88 841 24.83 0 32.1 44 -10.7 12.7
15:55 1012 29.88 841 24.83 -0.6 31 48 -10.4 13.3
16:00 1012 29.88 841 24.83 -0.5 31.1 44 -11.4 11.4
16:05 1012 29.88 841 24.83 -0.3 31.5 43 -11.4 11.5
16:10 1012 29.88 841 24.83 0.2 32.4 39 -12.1 10.3
16:15 1012 29.88 841 24.83 0.3 32.6 35 -13.6 7.6
16:20 1012 29.88 841 24.83 0.5 32.9 35 -13.2 8.2
16:25 1012 29.88 841 24.83 0.7 33.2 37 -12.3 9.9
16:30 1012 29.88 841 24.83 0.5 32.8 36 -12.9 8.8
16:35 1012 29.88 841 24.83 0.2 32.4 39 -12.1 10.2
16:40 1012 29.88 841 24.83 -0 31.9 39 -12.5 9.5
16:45 1012 29.88 841 24.83 -0 32 36 -13.3 8
16:50 1012 29.88 841 24.83 0.4 32.7 35 -13.5 7.7
16:55 1012 29.88 841 24.83 0.6 33 32 -14.3 6.3
17:00 1012 29.88 841 24.83 0.6 33 32 -14.3 6.3
17:05 1012 29.88 842 24.86 0.7 33.2 32 -14 6.7
17:10 1012 29.88 842 24.86 0.6 33 31 -14.6 5.8
17:15 1012 29.88 842 24.86 0.4 32.8 33 -14.2 6.5
17:05 1012 29.88 842 24.86 0.7 33.2 32 -14 6.7
17:10 1012 29.88 842 24.86 0.6 33 31 -14.6 5.8
17:15 1012 29.88 842 24.86 0.4 32.8 33 -14.2 6.5
17:20 1013 29.91 842 24.86 0.4 32.7 33 -14.2 6.4
17:25 1013 29.91 842 24.86 0.3 32.5 33 -14.3 6.3
17:30 1013 29.91 842 24.86 0.3 32.5 33 -14.1 6.7
17:35 1013 29.91 842 24.86 0.1 32.3 34 -13.8 7.1
17:40 1013 29.91 842 24.86 0.2 32.4 33 -14.3 6.3
17:45 1013 29.91 842 24.86 0.2 32.4 33 -14.1 6.6
17:50 1013 29.91 842 24.86 0.2 32.3 34 -14 6.9
17:55 1013 29.91 842 24.86 0.1 32.1 33 -14.3 6.3
18:00 1013 29.91 842 24.86 -0 31.9 34 -14.2 6.4
18:05 1013 29.91 842 24.86 -0.1 31.9 34 -14.1 6.7
18:10 1013 29.91 842 24.86 -0.2 31.6 34 -14.4 6.1
18:15 1013 29.91 842 24.86 -0.3 31.5 34 -14.4 6.1
18:20 1013 29.91 842 24.86 -0.4 31.4 35 -13.9 6.9
18:25 1013 29.91 842 24.86 -0.5 31.2 35 -14.1 6.6
18:30 1013 29.91 842 24.86 -0.5 31.1 36 -14 6.8
18:35 1013 29.91 842 24.86 -0.6 30.9 37 -13.4 7.8
18:40 1013 29.91 842 24.86 -0.8 30.5 39 -13.2 8.3
18:45 1013 29.91 842 24.86 -1 30.3 41 -12.7 9.2
18:50 1013 29.91 842 24.86 -1.1 30.1 41 -12.7 9.2
18:55 1013 29.91 842 24.86 -1.1 30 41 -12.7 9.1
19:00 1013 29.91 842 24.86 -1.2 29.8 42 -12.4 9.7
19:05 1013 29.91 842 24.86 -1.3 29.7 43 -12.4 9.6
19:10 1013 29.91 842 24.86 -1.4 29.5 43 -12.5 9.6
19:15 1013 29.91 842 24.86 -1.4 29.4 44 -12.2 10
19:20 1013 29.91 842 24.86 -1.5 29.3 45 -12 10.5
19:25 1013 29.91 842 24.86 -1.6 29.1 45 -12 10.5
19:30 1013 29.91 842 24.86 -1.7 28.9 46 -12 10.4
19:35 1013 29.91 842 24.86 -1.8 28.8 46 -12 10.4
19:40 1013 29.91 842 24.86 -1.8 28.7 47 -11.8 10.8
19:45 1013 29.91 842 24.86 -2 28.5 47 -11.9 10.6
19:50 1013 29.91 842 24.86 -2.3 27.9 50 -11.4 11.4
19:55 1013 29.91 842 24.86 -2.9 26.9 51 -11.6 11.2
20:00 1013 29.91 842 24.86 -3.2 26.2 50 -12.2 10.1
20:05 1013 29.91 842 24.86 -3.3 26.1 49 -12.5 9.5
20:10 1013 29.91 842 24.86 -3.3 26 48 -12.8 8.9
20:15 1013 29.91 842 24.86 -3.4 25.9 48 -12.9 8.7
20:20 1013 29.91 842 24.86 -3.5 25.6 49 -12.9 8.9
20:25 1013 29.91 842 24.86 -3.9 25 50 -12.8 8.9
20:30 1013 29.91 842 24.86 -4.1 24.6 50 -13.1 8.4
20:35 1013 29.91 842 24.86 -4.1 24.6 48 -13.6 7.6
20:40 1013 29.91 843 24.89 -3.8 25.1 46 -13.9 7
20:45 1013 29.91 843 24.89 -3.7 25.3 46 -13.8 7.1
20:50 1013 29.91 843 24.89 -3.9 25.1 47 -13.6 7.5
20:55 1013 29.91 843 24.89 -4 24.7 47 -13.9 7
21:00 1013 29.91 843 24.89 -4.2 24.4 47 -13.9 7
21:05 1013 29.91 843 24.89 -4.4 24.1 48 -13.8 7.2
21:10 1013 29.91 843 24.89 -4.4 24 47 -14.1 6.6
21:15 1013 29.91 843 24.89 -4.4 24.1 46 -14.4 6.1
21:20 1013 29.91 843 24.89 -4.4 24.1 47 -14 6.7
21:25 1013 29.91 843 24.89 -4.5 23.9 48 -14 6.7
21:30 1013 29.91 843 24.89 -4.6 23.8 49 -13.8 7.1
21:35 1013 29.91 843 24.89 -4.6 23.7 48 -13.9 6.9
21:40 1013 29.91 843 24.89 -4.8 23.4 49 -13.9 6.9
21:45 1013 29.91 843 24.89 -4.8 23.3 49 -14 6.7
21:50 1013 29.91 843 24.89 -4.8 23.3 47 -14.4 6.1
21:55 1013 29.91 843 24.89 -4.8 23.4 47 -14.4 6
22:00 1013 29.91 842 24.86 -4.9 23.2 48 -14.4 6.2
22:05 1013 29.91 843 24.89 -4.9 23.2 47 -14.6 5.8
22:10 1013 29.91 843 24.89 -4.9 23.1 47 -14.5 5.9
22:15 1013 29.91 843 24.89 -4.9 23.1 47 -14.6 5.7
22:20 1013 29.91 843 24.89 -4.9 23.2 47 -14.6 5.8
22:25 1013 29.91 843 24.89 -4.8 23.3 46 -14.7 5.6
22:30 1013 29.91 843 24.89 -5 23.1 47 -14.6 5.8
22:35 1013 29.91 843 24.89 -5.3 22.5 49 -14.4 6
22:40 1013 29.91 843 24.89 -5.5 22 50 -14.5 6
22:45 1014 29.94 843 24.89 -5.7 21.7 52 -14.2 6.4
22:50 1014 29.94 843 24.89 -5.9 21.4 52 -14.3 6.3
22:55 1014 29.94 843 24.89 -6 21.2 53 -14.1 6.5
23:00 1014 29.94 843 24.89 -6.2 20.9 53 -14.4 6.1
23:05 1014 29.94 843 24.89 -6.3 20.7 54 -14.1 6.7
23:10 1014 29.94 843 24.89 -6.6 20.1 56 -14.1 6.6
23:15 1014 29.94 843 24.89 -7 19.4 57 -14.2 6.4
23:20 1014 29.94 843 24.89 -7.2 19.1 57 -14.4 6.1
23:25 1014 29.94 843 24.89 -7.2 19.1 56 -14.4 6
23:30 1014 29.94 843 24.89 -7.1 19.2 55 -14.6 5.7
23:35 1014 29.94 843 24.89 -7.2 19 56 -14.5 5.9
23:40 1014 29.94 843 24.89 -7.1 19.1 56 -14.5 6
23:45 1014 29.94 843 24.89 -7.1 19.3 54 -15 5
23:50 1014 29.94 843 24.89 -6.8 19.7 52 -15.1 4.9
23:55 1014 29.94 843 24.89 -6.6 20.1 51 -15.1 4.9
24:00 1014 29.94 843 24.89 -6.6 20.2 53 -14.6 5.8
17:05 1015 29.97 845 24.95 -3.4 25.9 57 -10.8 12.5
17:10 1016 30 845 24.95 -3.3 26 56 -10.9 12.4
17:15 1016 30 845 24.95 -3.3 26 58 -10.5 13.1
17:20 1016 30 845 24.95 -3.4 25.9 54 -11.4 11.6
17:25 1016 30 845 24.95 -3.4 25.8 59 -10.3 13.5
17:30 1016 30 845 24.95 -3.6 25.6 60 -10.2 13.7
17:35 1016 30 845 24.95 -3.6 25.5 58 -10.8 12.5
17:40 1016 30 845 24.95 -3.6 25.5 57 -10.9 12.4
17:45 1016 30 845 24.95 -3.6 25.6 59 -10.4 13.3
17:50 1016 30 845 24.95 -3.5 25.7 63 -9.6 14.7
17:55 1016 30 845 24.95 -3.8 25.1 66 -9.2 15.4
18:00 1016 30 845 24.95 -4 24.7 65 -9.8 14.4
18:05 1016 30 845 24.95 -4 24.8 66 -9.5 15
18:10 1016 30 845 24.95 -4 24.9 61 -10.4 13.3
18:15 1016 30 845 24.95 -4 24.8 59 -11 12.2
18:20 1016 30 845 24.95 -3.9 25 54 -11.9 10.6
18:25 1016 30 845 24.95 -3.7 25.3 56 -11.2 11.9
18:30 1016 30 845 24.95 -3.8 25.2 61 -10.3 13.5
18:35 1016 30 846 24.98 -3.9 25 64 -9.8 14.3
18:40 1016 30 846 24.98 -3.8 25.1 70 -8.6 16.6
18:45 1016 30 846 24.98 -4.1 24.5 74 -8.2 17.3
18:50 1017 30.03 846 24.98 -4.3 24.2 76 -8 17.7
18:55 1017 30.03 846 24.98 -4.4 24.1 73 -8.5 16.7
19:00 1017 30.03 846 24.98 -4.4 24 69 -9.3 15.3
19:05 1017 30.03 846 24.98 -4.5 23.9 64 -10.3 13.4
19:10 1017 30.03 846 24.98 -4.6 23.7 71 -9 15.7
19:15 1017 30.03 846 24.98 -4.9 23.2 74 -8.9 16
19:20 1017 30.03 846 24.98 -5.1 22.8 76 -8.6 16.4
19:25 1017 30.03 846 24.98 -5.4 22.3 80 -8.3 17.1
19:30 1017 30.03 846 24.98 -5.7 21.8 84 -8 17.7
19:35 1017 30.03 846 24.98 -6.1 21.1 87 -7.8 17.9
19:40 1017 30.03 846 24.98 -6.1 21 87 -8 17.6
19:45 1017 30.03 846 24.98 -6.2 20.9 87 -8.1 17.5
19:50 1017 30.03 847 25.01 -6.2 20.8 84 -8.4 16.8
19:55 1017 30.03 847 25.01 -6.2 20.9 81 -9 15.8
20:00 1017 30.03 847 25.01 -6 21.1 80 -9 15.8
20:05 1018 30.06 847 25.01 -6 21.2 79 -9.1 15.6
20:10 1018 30.06 847 25.01 -6.1 21.1 79 -9.2 15.5
20:15 1018 30.06 847 25.01 -6 21.2 74 -9.9 14.2
20:20 1018 30.06 847 25.01 -6 21.2 73 -10.2 13.7
20:25 1018 30.06 847 25.01 -6.1 21.1 73 -10.2 13.7
20:30 1018 30.06 847 25.01 -6.1 20.9 74 -10.1 13.8
20:35 1018 30.06 847 25.01 -6.2 20.8 75 -10 14
20:40 1018 30.06 847 25.01 -6.3 20.7 75 -10.1 13.8
20:45 1018 30.06 847 25.01 -6.3 20.7 74 -10.2 13.6
20:50 1018 30.06 847 25.01 -6.3 20.6 74 -10.2 13.7
20:55 1018 30.06 847 25.01 -6.4 20.5 74 -10.2 13.6
21:00 1018 30.06 847 25.01 -6.4 20.4 74 -10.4 13.4
21:05 1018 30.06 847 25.01 -6.6 20.2 74 -10.5 13.1
21:10 1018 30.06 847 25.01 -6.7 20 74 -10.5 13
21:15 1018 30.06 847 25.01 -6.7 20 74 -10.5 13.1
21:20 1018 30.06 847 25.01 -6.7 19.9 75 -10.5 13
21:25 1018 30.06 847 25.01 -6.8 19.8 75 -10.6 13
21:30 1018 30.06 847 25.01 -6.8 19.7 74 -10.6 12.8
21:35 1018 30.06 847 25.01 -6.9 19.7 75 -10.6 12.9
21:40 1018 30.06 847 25.01 -6.9 19.6 74 -10.7 12.8
21:45 1018 30.06 847 25.01 -6.9 19.6 75 -10.7 12.8
21:50 1018 30.06 847 25.01 -6.9 19.5 74 -10.8 12.6
21:55 1018 30.06 847 25.01 -6.9 19.6 73 -10.9 12.4
22:00 1018 30.06 847 25.01 -6.9 19.6 74 -10.8 12.6
22:05 1018 30.06 847 25.01 -6.9 19.6 73 -11 12.2
22:10 1018 30.06 847 25.01 -6.9 19.6 72 -11.2 11.9
22:15 1018 30.06 847 25.01 -6.9 19.6 72 -11.1 12
22:20 1018 30.06 848 25.04 -7 19.4 73 -11.1 12.1
22:25 1018 30.06 848 25.04 -7.1 19.3 73 -11.1 12
22:30 1018 30.06 848 25.04 -7.1 19.1 74 -11 12.3
22:35 1019 30.09 848 25.04 -7.2 19 74 -11 12.1
22:40 1019 30.09 848 25.04 -7.2 19 73 -11.4 11.5
22:45 1019 30.09 848 25.04 -7.2 19.1 72 -11.5 11.4
22:50 1019 30.09 848 25.04 -7.2 19 71 -11.6 11.1
22:55 1019 30.09 848 25.04 -7.2 19.1 72 -11.4 11.4
23:00 1019 30.09 848 25.04 -7.3 18.9 73 -11.2 11.8
23:05 1019 30.09 848 25.04 -7.4 18.8 72 -11.6 11.1
23:10 1019 30.09 848 25.04 -7.5 18.6 72 -11.7 10.9
23:15 1019 30.09 848 25.04 -7.3 18.8 73 -11.4 11.5
23:20 1019 30.09 848 25.04 -7.3 18.9 72 -11.5 11.4
23:25 1019 30.09 848 25.04 -7.2 19.1 72 -11.3 11.6
23:30 1019 30.09 848 25.04 -7.2 19.1 73 -11.3 11.6
23:35 1019 30.09 848 25.04 -7.2 19.1 74 -11 12.2
23:40 1019 30.09 848 25.04 -7.1 19.3 73 -11.1 12
23:45 1019 30.09 848 25.04 -7 19.4 74 -10.9 12.4
23:50 1019 30.09 848 25.04 -7.1 19.3 77 -10.5 13
23:55 1019 30.09 848 25.04 -7.2 19.1 77 -10.6 12.9
24:00 1019 30.09 848 25.04 -7.3 18.8 77 -10.6 12.9
17:05 1021 30.15 850 25.1 -4.6 23.7 58 -11.8 10.8
17:10 1021 30.15 850 25.1 -4.6 23.7 56 -12.1 10.2
17:15 1021 30.15 850 25.1 -4.6 23.8 57 -11.9 10.6
17:20 1021 30.15 850 25.1 -4.3 24.2 55 -12.2 10.1
17:25 1021 30.15 850 25.1 -4.5 24 56 -12 10.4
17:30 1021 30.15 850 25.1 -4.5 23.9 57 -11.8 10.7
17:35 1021 30.15 850 25.1 -4.5 24 57 -11.9 10.6
17:40 1021 30.15 850 25.1 -4.5 24 55 -12.2 10
17:45 1021 30.15 850 25.1 -4.6 23.8 57 -11.8 10.8
17:50 1021 30.15 850 25.1 -4.3 24.3 54 -12.2 10
17:55 1021 30.15 850 25.1 -4.4 24 57 -11.8 10.8
18:00 1021 30.15 850 25.1 -4.4 24 57 -11.6 11.1
18:05 1021 30.15 850 25.1 -4.4 24 56 -12 10.4
18:10 1021 30.15 850 25.1 -4.5 24 57 -11.7 10.9
18:15 1021 30.15 850 25.1 -4.6 23.7 59 -11.4 11.4
18:20 1021 30.15 850 25.1 -4.9 23.3 59 -11.7 11
18:25 1021 30.15 850 25.1 -4.9 23.1 57 -12.1 10.2
18:30 1021 30.15 850 25.1 -5 23 57 -12.2 10
18:35 1021 30.15 850 25.1 -4.8 23.3 56 -12.4 9.7
18:40 1021 30.15 850 25.1 -4.8 23.3 57 -12.2 10
18:45 1021 30.15 850 25.1 -4.9 23.1 57 -12.2 10.1
18:50 1021 30.15 850 25.1 -5 22.9 57 -12.3 9.9
18:55 1021 30.15 850 25.1 -5 23 55 -12.6 9.3
19:00 1021 30.15 850 25.1 -4.9 23.1 56 -12.5 9.4
19:05 1021 30.15 850 25.1 -4.9 23.2 55 -12.7 9.2
19:10 1021 30.15 850 25.1 -5 23 56 -12.5 9.4
19:15 1021 30.15 850 25.1 -5.1 22.7 56 -12.5 9.4
19:20 1021 30.15 850 25.1 -5.2 22.6 57 -12.5 9.5
19:25 1021 30.15 850 25.1 -5.6 21.9 59 -12.3 9.8
19:30 1021 30.15 850 25.1 -6.3 20.6 61 -12.7 9.2
19:35 1021 30.15 850 25.1 -6.7 19.9 62 -12.8 8.9
19:40 1021 30.15 850 25.1 -6.7 20 62 -12.7 9.1
19:45 1021 30.15 850 25.1 -6.8 19.8 63 -12.7 9.1
19:50 1021 30.15 850 25.1 -6.9 19.6 63 -12.8 9
19:55 1021 30.15 850 25.1 -7.1 19.3 64 -12.9 8.9
20:00 1021 30.15 851 25.13 -7.1 19.2 62 -13.2 8.2
20:05 1021 30.15 851 25.13 -7.2 19.1 62 -13.3 8
20:10 1021 30.15 851 25.13 -7.3 18.8 63 -13.2 8.3
20:15 1022 30.18 851 25.13 -7.4 18.7 65 -13 8.6
20:20 1022 30.18 851 25.13 -7.6 18.4 65 -13 8.6
20:25 1022 30.18 851 25.13 -7.8 18 65 -13.2 8.3
20:30 1022 30.18 851 25.13 -7.8 17.9 65 -13.3 8
20:35 1022 30.18 851 25.13 -8.1 17.4 64 -13.7 7.3
20:40 1022 30.18 851 25.13 -8.2 17.3 65 -13.6 7.5
20:45 1022 30.18 851 25.13 -8.1 17.4 64 -13.8 7.1
20:50 1022 30.18 851 25.13 -8 17.6 64 -13.7 7.3
20:55 1022 30.18 851 25.13 -7.9 17.8 63 -13.7 7.3
21:00 1022 30.18 851 25.13 -7.9 17.7 64 -13.7 7.4
21:05 1022 30.18 851 25.13 -8.1 17.4 63 -13.9 7
21:10 1022 30.18 851 25.13 -8.2 17.2 65 -13.7 7.3
21:15 1022 30.18 851 25.13 -8.3 17.1 64 -13.9 7
21:20 1022 30.18 851 25.13 -8.3 17 64 -13.9 7
21:25 1022 30.18 851 25.13 -8.5 16.8 64 -14.1 6.7
21:30 1022 30.18 851 25.13 -8.6 16.6 65 -14 6.9
21:35 1022 30.18 851 25.13 -8.6 16.5 65 -14 6.7
21:40 1022 30.18 851 25.13 -8.6 16.6 64 -14.1 6.5
21:45 1022 30.18 851 25.13 -8.6 16.6 64 -14.2 6.4
21:50 1022 30.18 851 25.13 -8.7 16.4 64 -14.3 6.3
21:55 1022 30.18 851 25.13 -8.8 16.3 63 -14.5 5.9
22:00 1022 30.18 851 25.13 -9 15.9 64 -14.7 5.6
22:05 1022 30.18 851 25.13 -9 15.8 64 -14.7 5.6
22:10 1022 30.18 851 25.13 -8.9 16 64 -14.5 5.8
22:15 1022 30.18 851 25.13 -8.9 16.1 64 -14.4 6.1
22:20 1022 30.18 851 25.13 -8.9 16 64 -14.4 6
22:25 1022 30.18 851 25.13 -8.9 16 64 -14.5 5.8
22:30 1022 30.18 851 25.13 -9 15.9 64 -14.6 5.7
22:35 1022 30.18 851 25.13 -9 15.7 64 -14.7 5.6
22:40 1022 30.18 851 25.13 -9.3 15.3 64 -14.9 5.1
22:45 1022 30.18 851 25.13 -9.5 15 65 -14.9 5.1
22:50 1022 30.18 851 25.13 -9.6 14.6 65 -15 5
22:55 1022 30.18 851 25.13 -9.7 14.6 66 -14.9 5.1
23:00 1022 30.18 851 25.13 -9.3 15.2 63 -15.1 4.8
23:05 1022 30.18 851 25.13 -9.5 15 64 -15.1 4.9
23:10 1022 30.18 851 25.13 -9.5 14.8 65 -15 5
23:15 1022 30.18 851 25.13 -9.5 14.8 65 -15 5
23:20 1022 30.18 851 25.13 -9.5 14.9 65 -15 5
23:25 1022 30.18 851 25.13 -9.5 14.9 65 -15 5
23:30 1022 30.18 851 25.13 -9.4 15.1 64 -14.9 5.1
23:35 1022 30.18 851 25.13 -9.3 15.4 65 -14.6 5.6
23:40 1022 30.18 851 25.13 -9.2 15.5 65 -14.6 5.7
23:45 1022 30.18 851 25.13 -9.1 15.6 65 -14.6 5.8
23:50 1022 30.18 851 25.13 -8.9 15.9 63 -14.7 5.6
23:55 1022 30.18 851 25.13 -8.8 16.1 63 -14.6 5.8
24:00 1022 30.18 851 25.13 -8.7 16.3 63 -14.5 5.9
17:05 1022 30.18 852 25.16 -1.2 29.9 32 -15.9 3.3
17:10 1022 30.18 852 25.16 -1.3 29.6 32 -16 3.3
17:15 1022 30.18 852 25.16 -1.2 29.8 32 -15.9 3.4
17:20 1022 30.18 852 25.16 -1.2 29.9 31 -16.1 2.9
17:25 1022 30.18 852 25.16 -1.1 30 32 -16 3.2
17:30 1022 30.18 852 25.16 -1.2 29.9 31 -16.4 2.5
17:35 1022 30.18 852 25.16 -1.3 29.6 33 -15.8 3.6
17:40 1022 30.18 852 25.16 -1.5 29.3 33 -15.9 3.4
17:45 1022 30.18 852 25.16 -1.7 28.9 32 -16.5 2.4
17:50 1022 30.18 852 25.16 -1.9 28.6 31 -16.9 1.5
17:55 1022 30.18 851 25.13 -1.9 28.5 32 -16.5 2.2
18:00 1022 30.18 851 25.13 -2 28.4 30 -17.3 0.9
18:05 1022 30.18 851 25.13 -2.1 28.3 30 -17.6 0.3
18:10 1022 30.18 851 25.13 -2.1 28.2 31 -17.2 1.1
18:15 1022 30.18 851 25.13 -2.2 28.1 31 -17.3 0.9
18:20 1022 30.18 851 25.13 -2.2 28.1 31 -17.2 1
18:25 1022 30.18 851 25.13 -2.3 27.9 31 -17.2 1
18:30 1022 30.18 851 25.13 -2.3 27.8 31 -17.1 1.2
18:35 1022 30.18 851 25.13 -2.4 27.8 30 -17.6 0.4
18:40 1022 30.18 851 25.13 -2.4 27.7 31 -17.2 1
18:45 1022 30.18 851 25.13 -2.5 27.4 31 -17.4 0.7
18:50 1022 30.18 851 25.13 -2.6 27.3 32 -17.4 0.7
18:55 1022 30.18 851 25.13 -2.8 27 33 -17.1 1.2
19:00 1022 30.18 851 25.13 -2.9 26.7 34 -16.7 1.9
19:05 1022 30.18 851 25.13 -3.2 26.2 36 -16.5 2.4
19:10 1022 30.18 851 25.13 -3.3 26 38 -15.8 3.6
19:15 1022 30.18 851 25.13 -3.4 25.9 39 -15.4 4.3
19:20 1022 30.18 851 25.13 -3.6 25.5 41 -15.1 4.7
19:25 1022 30.18 851 25.13 -3.8 25.2 43 -14.7 5.6
19:30 1022 30.18 851 25.13 -4.1 24.6 45 -14.5 6
19:35 1022 30.18 851 25.13 -4.3 24.2 46 -14.4 6.1
19:40 1022 30.18 851 25.13 -4.5 24 47 -14.2 6.5
19:45 1022 30.18 851 25.13 -4.6 23.8 48 -14.1 6.7
19:50 1022 30.18 851 25.13 -4.7 23.5 47 -14.3 6.2
19:55 1022 30.18 851 25.13 -4.9 23.2 48 -14.3 6.3
20:00 1022 30.18 851 25.13 -4.9 23.1 49 -14.1 6.6
20:05 1022 30.18 851 25.13 -5.1 22.8 49 -14.3 6.3
20:10 1022 30.18 851 25.13 -5.3 22.4 50 -14.3 6.3
20:15 1022 30.18 851 25.13 -5.5 22.2 47 -15.2 4.6
20:20 1022 30.18 851 25.13 -5.3 22.5 43 -15.9 3.4
20:25 1022 30.18 851 25.13 -5.4 22.3 45 -15.5 4.1
20:30 1022 30.18 851 25.13 -5.7 21.8 45 -15.8 3.5
20:35 1022 30.18 851 25.13 -5.8 21.6 47 -15.5 4
20:40 1022 30.18 851 25.13 -6 21.1 48 -15.4 4.3
20:45 1022 30.18 851 25.13 -6.2 20.9 48 -15.5 4.1
20:50 1022 30.18 851 25.13 -6.3 20.7 49 -15.4 4.3
20:55 1022 30.18 851 25.13 -6.4 20.5 50 -15.2 4.7
21:00 1022 30.18 851 25.13 -6.6 20.1 51 -15.1 4.9
21:05 1022 30.18 851 25.13 -6.8 19.8 51 -15.3 4.5
21:10 1022 30.18 851 25.13 -6.8 19.7 52 -15.2 4.7
21:15 1022 30.18 851 25.13 -6.8 19.7 51 -15.5 4.2
21:20 1022 30.18 851 25.13 -6.7 20 51 -15.2 4.6
21:25 1022 30.18 851 25.13 -6.9 19.5 51 -15.4 4.4
21:30 1022 30.18 851 25.13 -7 19.4 51 -15.6 3.9
21:35 1022 30.18 851 25.13 -6.8 19.7 50 -15.6 3.9
21:40 1022 30.18 851 25.13 -6.8 19.7 50 -15.6 3.9
21:45 1022 30.18 851 25.13 -7 19.4 51 -15.6 4
21:50 1022 30.18 851 25.13 -7.2 19.1 50 -15.9 3.5
21:55 1022 30.18 851 25.13 -6.9 19.6 48 -16.1 2.9
22:00 1022 30.18 851 25.13 -6.7 20 48 -15.9 3.4
22:05 1022 30.18 851 25.13 -6.8 19.7 49 -15.7 3.7
22:10 1022 30.18 851 25.13 -6.9 19.7 49 -15.8 3.5
22:15 1022 30.18 851 25.13 -6.8 19.7 49 -15.9 3.3
22:20 1022 30.18 851 25.13 -6.8 19.8 49 -15.9 3.3
22:25 1022 30.18 851 25.13 -6.9 19.6 48 -16.1 3
22:30 1022 30.18 851 25.13 -7.1 19.3 49 -16 3.2
22:35 1022 30.18 851 25.13 -7.3 18.9 51 -15.9 3.4
22:40 1022 30.18 851 25.13 -7.5 18.5 52 -15.8 3.5
22:45 1022 30.18 851 25.13 -7.7 18.1 51 -16.1 3
22:50 1022 30.18 851 25.13 -7.6 18.2 51 -16.2 2.8
22:55 1022 30.18 851 25.13 -7.4 18.7 49 -16.5 2.3
23:00 1022 30.18 851 25.13 -7.2 19 48 -16.4 2.5
23:05 1022 30.18 851 25.13 -7.2 19 48 -16.4 2.6
23:10 1022 30.18 851 25.13 -7.3 18.8 49 -16.3 2.6
23:15 1022 30.18 851 25.13 -7.3 18.9 49 -16.3 2.6
23:20 1022 30.18 851 25.13 -7.2 19.1 48 -16.5 2.4
23:25 1022 30.18 851 25.13 -7.1 19.2 47 -16.5 2.3
23:30 1022 30.18 851 25.13 -7 19.4 47 -16.5 2.3
23:35 1022 30.18 851 25.13 -7.1 19.3 47 -16.5 2.4
23:40 1021 30.15 851 25.13 -7 19.4 47 -16.4 2.5
23:45 1021 30.15 851 25.13 -7.1 19.2 48 -16.4 2.4
23:50 1021 30.15 851 25.13 -7.2 19.1 48 -16.3 2.6
23:55 1021 30.15 851 25.13 -7.2 19 48 -16.4 2.5
24:00 1021 30.15 851 25.13 -7.4 18.7 49 -16.3 2.7
17:15 1012 29.88 842 24.86 0.4 32.8 33 -14.2 6.5
17:20 1013 29.91 842 24.86 0.4 32.7 33 -14.2 6.4
17:25 1013 29.91 842 24.86 0.3 32.5 33 -14.3 6.3
17:30 1013 29.91 842 24.86 0.3 32.5 33 -14.1 6.7
17:35 1013 29.91 842 24.86 0.1 32.3 34 -13.8 7.1
17:40 1013 29.91 842 24.86 0.2 32.4 33 -14.3 6.3
17:45 1013 29.91 842 24.86 0.2 32.4 33 -14.1 6.6
17:50 1013 29.91 842 24.86 0.2 32.3 34 -14 6.9
17:55 1013 29.91 842 24.86 0.1 32.1 33 -14.3 6.3
18:00 1013 29.91 842 24.86 -0 31.9 34 -14.2 6.4
18:05 1013 29.91 842 24.86 -0.1 31.9 34 -14.1 6.7
18:10 1013 29.91 842 24.86 -0.2 31.6 34 -14.4 6.1
18:15 1013 29.91 842 24.86 -0.3 31.5 34 -14.4 6.1
18:20 1013 29.91 842 24.86 -0.4 31.4 35 -13.9 6.9
18:25 1013 29.91 842 24.86 -0.5 31.2 35 -14.1 6.6
18:30 1013 29.91 842 24.86 -0.5 31.1 36 -14 6.8
18:35 1013 29.91 842 24.86 -0.6 30.9 37 -13.4 7.8
18:40 1013 29.91 842 24.86 -0.8 30.5 39 -13.2 8.3
18:45 1013 29.91 842 24.86 -1 30.3 41 -12.7 9.2
18:50 1013 29.91 842 24.86 -1.1 30.1 41 -12.7 9.2
18:55 1013 29.91 842 24.86 -1.1 30 41 -12.7 9.1
19:00 1013 29.91 842 24.86 -1.2 29.8 42 -12.4 9.7
19:05 1013 29.91 842 24.86 -1.3 29.7 43 -12.4 9.6
19:10 1013 29.91 842 24.86 -1.4 29.5 43 -12.5 9.6
19:15 1013 29.91 842 24.86 -1.4 29.4 44 -12.2 10
19:20 1013 29.91 842 24.86 -1.5 29.3 45 -12 10.5
19:25 1013 29.91 842 24.86 -1.6 29.1 45 -12 10.5
19:30 1013 29.91 842 24.86 -1.7 28.9 46 -12 10.4
19:35 1013 29.91 842 24.86 -1.8 28.8 46 -12 10.4
19:40 1013 29.91 842 24.86 -1.8 28.7 47 -11.8 10.8
19:45 1013 29.91 842 24.86 -2 28.5 47 -11.9 10.6
19:50 1013 29.91 842 24.86 -2.3 27.9 50 -11.4 11.4
19:55 1013 29.91 842 24.86 -2.9 26.9 51 -11.6 11.2
20:00 1013 29.91 842 24.86 -3.2 26.2 50 -12.2 10.1
20:05 1013 29.91 842 24.86 -3.3 26.1 49 -12.5 9.5
20:10 1013 29.91 842 24.86 -3.3 26 48 -12.8 8.9
20:15 1013 29.91 842 24.86 -3.4 25.9 48 -12.9 8.7
20:20 1013 29.91 842 24.86 -3.5 25.6 49 -12.9 8.9
20:25 1013 29.91 842 24.86 -3.9 25 50 -12.8 8.9
20:30 1013 29.91 842 24.86 -4.1 24.6 50 -13.1 8.4
20:35 1013 29.91 842 24.86 -4.1 24.6 48 -13.6 7.6
20:40 1013 29.91 843 24.89 -3.8 25.1 46 -13.9 7
20:45 1013 29.91 843 24.89 -3.7 25.3 46 -13.8 7.1
20:50 1013 29.91 843 24.89 -3.9 25.1 47 -13.6 7.5
20:55 1013 29.91 843 24.89 -4 24.7 47 -13.9 7
21:00 1013 29.91 843 24.89 -4.2 24.4 47 -13.9 7
21:05 1013 29.91 843 24.89 -4.4 24.1 48 -13.8 7.2
21:10 1013 29.91 843 24.89 -4.4 24 47 -14.1 6.6
21:15 1013 29.91 843 24.89 -4.4 24.1 46 -14.4 6.1
21:20 1013 29.91 843 24.89 -4.4 24.1 47 -14 6.7
21:25 1013 29.91 843 24.89 -4.5 23.9 48 -14 6.7
21:30 1013 29.91 843 24.89 -4.6 23.8 49 -13.8 7.1
21:35 1013 29.91 843 24.89 -4.6 23.7 48 -13.9 6.9
21:40 1013 29.91 843 24.89 -4.8 23.4 49 -13.9 6.9
21:45 1013 29.91 843 24.89 -4.8 23.3 49 -14 6.7
21:50 1013 29.91 843 24.89 -4.8 23.3 47 -14.4 6.1
21:55 1013 29.91 843 24.89 -4.8 23.4 47 -14.4 6
22:00 1013 29.91 842 24.86 -4.9 23.2 48 -14.4 6.2
22:05 1013 29.91 843 24.89 -4.9 23.2 47 -14.6 5.8
22:10 1013 29.91 843 24.89 -4.9 23.1 47 -14.5 5.9
22:15 1013 29.91 843 24.89 -4.9 23.1 47 -14.6 5.7
22:20 1013 29.91 843 24.89 -4.9 23.2 47 -14.6 5.8
22:25 1013 29.91 843 24.89 -4.8 23.3 46 -14.7 5.6
22:30 1013 29.91 843 24.89 -5 23.1 47 -14.6 5.8
22:35 1013 29.91 843 24.89 -5.3 22.5 49 -14.4 6
22:40 1013 29.91 843 24.89 -5.5 22 50 -14.5 6
22:45 1014 29.94 843 24.89 -5.7 21.7 52 -14.2 6.4
22:50 1014 29.94 843 24.89 -5.9 21.4 52 -14.3 6.3
22:55 1014 29.94 843 24.89 -6 21.2 53 -14.1 6.5
23:00 1014 29.94 843 24.89 -6.2 20.9 53 -14.4 6.1
23:05 1014 29.94 843 24.89 -6.3 20.7 54 -14.1 6.7
23:10 1014 29.94 843 24.89 -6.6 20.1 56 -14.1 6.6
23:15 1014 29.94 843 24.89 -7 19.4 57 -14.2 6.4
23:20 1014 29.94 843 24.89 -7.2 19.1 57 -14.4 6.1
23:25 1014 29.94 843 24.89 -7.2 19.1 56 -14.4 6
23:30 1014 29.94 843 24.89 -7.1 19.2 55 -14.6 5.7
23:35 1014 29.94 843 24.89 -7.2 19 56 -14.5 5.9
23:40 1014 29.94 843 24.89 -7.1 19.1 56 -14.5 6
23:45 1014 29.94 843 24.89 -7.1 19.3 54 -15 5
23:50 1014 29.94 843 24.89 -6.8 19.7 52 -15.1 4.9
23:55 1014 29.94 843 24.89 -6.6 20.1 51 -15.1 4.9
24:00 1014 29.94 843 24.89 -6.6 20.2 53 -14.6 5.8